createdAt,value
2019-04-27T00:02:06.887Z,1015.18
2019-04-27T00:07:06.394Z,1015.04
2019-04-27T00:12:06.243Z,1015.19
2019-04-27T00:16:11.082Z,1015.18
2019-04-27T00:21:06.427Z,1015.25
2019-04-27T00:26:06.920Z,1015.16
2019-04-27T00:31:06.869Z,1015.36
2019-04-27T00:36:06.303Z,1015.32
2019-04-27T00:41:07.155Z,1015.27
2019-04-27T00:46:07.136Z,1015.34
2019-04-27T00:51:06.739Z,1015.37
2019-04-27T00:55:07.134Z,1015.45
2019-04-27T01:00:08.126Z,1015.36
2019-04-27T01:05:07.927Z,1015.2
2019-04-27T01:10:08.054Z,1015.09
2019-04-27T01:15:08.002Z,1015.04
2019-04-27T01:20:06.389Z,1015.12
2019-04-27T01:25:08.570Z,1015.17
2019-04-27T01:30:09.154Z,1015.2
2019-04-27T01:34:06.490Z,1015.4
2019-04-27T01:39:08.787Z,1015.39
2019-04-27T01:44:07.153Z,1015.43
2019-04-27T01:49:06.655Z,1015.42
2019-04-27T01:54:06.309Z,1015.43
2019-04-27T01:59:06.576Z,1015.48
2019-04-27T02:04:07.176Z,1015.44
2019-04-27T02:08:07.363Z,1015.35
2019-04-27T02:13:06.349Z,1015.33
2019-04-27T02:18:07.006Z,1015.2
2019-04-27T02:23:06.483Z,1015.19
2019-04-27T02:28:07.017Z,1015.16
2019-04-27T02:33:09.463Z,1015.24
2019-04-27T02:38:06.286Z,1015.32
2019-04-27T02:42:06.082Z,1015.34
2019-04-27T02:47:06.889Z,1015.4
2019-04-27T02:52:06.879Z,1015.5
2019-04-27T02:57:10.752Z,1015.52
2019-04-27T03:02:06.403Z,1015.41
2019-04-27T03:07:07.089Z,1015.34
2019-04-27T03:12:06.854Z,1015.32
2019-04-27T03:17:06.612Z,1015.34
2019-04-27T03:21:07.037Z,1015.32
2019-04-27T03:26:10.088Z,1015.36
2019-04-27T03:27:05.992Z,1015.36
2019-04-27T03:31:06.235Z,1015.35
2019-04-27T03:36:06.920Z,1015.44
2019-04-27T03:41:06.508Z,1015.33
2019-04-27T03:46:07.144Z,1015.28
2019-04-27T03:51:09.540Z,1015.27
2019-04-27T03:56:06.401Z,1015.35
2019-04-27T04:00:10.870Z,1015.4
2019-04-27T04:05:10.540Z,1015.48
2019-04-27T04:10:07.161Z,1015.54
2019-04-27T04:15:10.859Z,1015.55
2019-04-27T04:20:09.902Z,1015.5
2019-04-27T04:25:11.373Z,1015.53
2019-04-27T04:30:12.521Z,1015.58
2019-04-27T04:35:06.962Z,1015.57
2019-04-27T04:39:07.474Z,1015.59
2019-04-27T04:44:06.196Z,1015.63
2019-04-27T04:49:06.424Z,1015.64
2019-04-27T04:54:06.387Z,1015.58
2019-04-27T04:59:07.078Z,1015.65
2019-04-27T05:04:06.726Z,1015.68
2019-04-27T05:09:09.073Z,1015.65
2019-04-27T05:13:06.690Z,1015.62
2019-04-27T05:18:08.929Z,1015.66
2019-04-27T05:23:06.479Z,1015.65
2019-04-27T05:28:06.645Z,1015.58
2019-04-27T05:33:06.375Z,1015.5
2019-04-27T05:38:12.895Z,1015.44
2019-04-27T05:43:06.276Z,1015.45
2019-04-27T05:48:06.842Z,1015.44
2019-04-27T05:52:14.484Z,1015.49
2019-04-27T05:57:06.391Z,1015.51
2019-04-27T06:02:06.806Z,1015.41
2019-04-27T06:07:09.096Z,1015.56
2019-04-27T06:12:08.519Z,1015.54
2019-04-27T06:17:06.814Z,1015.52
2019-04-27T06:22:06.986Z,1015.51
2019-04-27T06:26:06.376Z,1015.51
2019-04-27T06:31:06.431Z,1015.52
2019-04-27T06:36:06.695Z,1015.5
2019-04-27T06:41:06.455Z,1015.42
2019-04-27T06:46:08.634Z,1015.44
2019-04-27T06:51:07.070Z,1015.46
2019-04-27T06:56:05.907Z,1015.43
2019-04-27T07:01:07.227Z,1015.36
2019-04-27T07:05:08.731Z,1015.43
2019-04-27T07:10:08.192Z,1015.4
2019-04-27T07:15:09.289Z,1015.41
2019-04-27T07:20:08.836Z,1015.37
2019-04-27T07:25:06.338Z,1015.36
2019-04-27T07:30:12.319Z,1015.38
2019-04-27T07:35:06.802Z,1015.37
2019-04-27T07:39:11.723Z,1015.36
2019-04-27T07:44:06.550Z,1015.36
2019-04-27T07:49:06.993Z,1015.31
2019-04-27T07:54:09.251Z,1015.28
2019-04-27T07:59:06.490Z,1015.3
2019-04-27T08:04:08.597Z,1015.29
2019-04-27T08:09:06.823Z,1015.27
2019-04-27T08:13:07.111Z,1015.28
2019-04-27T08:18:06.375Z,1015.24
2019-04-27T08:23:06.520Z,1015.26
2019-04-27T08:28:06.287Z,1015.19
2019-04-27T08:33:07.006Z,1015.2
2019-04-27T08:38:08.853Z,1015.26
2019-04-27T08:42:06.747Z,1015.26
2019-04-27T08:47:06.982Z,1015.23
2019-04-27T08:52:09.100Z,1015.13
2019-04-27T08:57:06.318Z,1015.08
2019-04-27T09:02:06.424Z,1015.04
2019-04-27T09:07:09.134Z,1014.95
2019-04-27T09:12:07.159Z,1014.85
2019-04-27T09:17:09.392Z,1014.98
2019-04-27T09:21:06.372Z,1014.92
2019-04-27T09:26:07.330Z,1014.91
2019-04-27T09:31:08.721Z,1014.8
2019-04-27T09:36:06.562Z,1014.83
2019-04-27T09:41:07.593Z,1014.86
2019-04-27T09:46:06.487Z,1014.84
2019-04-27T09:51:07.146Z,1014.76
2019-04-27T09:55:08.789Z,1014.73
2019-04-27T10:00:09.081Z,1014.75
2019-04-27T10:05:06.824Z,1014.75
2019-04-27T10:10:06.881Z,1014.69
2019-04-27T10:15:08.875Z,1014.69
2019-04-27T10:20:06.879Z,1014.68
2019-04-27T10:25:07.151Z,1014.61
2019-04-27T10:30:07.846Z,1014.57
2019-04-27T10:34:06.690Z,1014.57
2019-04-27T10:39:06.973Z,1014.5
2019-04-27T10:44:07.960Z,1014.42
2019-04-27T10:49:07.000Z,1014.46
2019-04-27T10:54:06.244Z,1014.37
2019-04-27T10:59:09.738Z,1014.38
2019-04-27T11:04:06.690Z,1014.22
2019-04-27T11:08:07.025Z,1014.18
2019-04-27T11:13:06.858Z,1014.21
2019-04-27T11:18:06.310Z,1014.03
2019-04-27T11:23:12.529Z,1013.99
2019-04-27T11:28:06.876Z,1013.95
2019-04-27T11:33:06.713Z,1014.06
2019-04-27T11:38:06.664Z,1013.97
2019-04-27T11:42:06.492Z,1014.04
2019-04-27T11:47:07.013Z,1013.88
2019-04-27T11:52:06.311Z,1014.01
2019-04-27T11:57:06.469Z,1013.86
2019-04-27T12:02:07.140Z,1013.79
2019-04-27T12:07:06.926Z,1013.77
2019-04-27T12:12:19.510Z,1013.78
2019-04-27T12:16:06.595Z,1013.59
2019-04-27T12:21:06.647Z,1013.69
2019-04-27T12:26:06.263Z,1013.69
2019-04-27T12:31:09.282Z,1013.56
2019-04-27T12:36:06.717Z,1013.44
2019-04-27T12:41:07.222Z,1013.38
2019-04-27T12:46:06.548Z,1013.33
2019-04-27T12:50:07.011Z,1013.32
2019-04-27T12:55:06.215Z,1013.27
2019-04-27T13:00:08.114Z,1013.2
2019-04-27T13:05:07.252Z,1013.12
2019-04-27T13:10:07.120Z,1013.09
2019-04-27T13:15:07.841Z,1012.97
2019-04-27T13:20:06.733Z,1012.92
2019-04-27T13:24:07.460Z,1012.9
2019-04-27T13:29:06.787Z,1012.91
2019-04-27T13:34:06.392Z,1012.85
2019-04-27T13:39:06.935Z,1012.84
2019-04-27T13:44:07.146Z,1012.79
2019-04-27T13:49:06.871Z,1012.77
2019-04-27T13:54:28.907Z,1012.74
2019-04-27T13:58:07.978Z,1012.72
2019-04-27T14:03:06.187Z,1012.72
2019-04-27T14:08:08.719Z,1012.79
2019-04-27T14:13:08.757Z,1012.65
2019-04-27T14:18:08.694Z,1012.87
2019-04-27T14:23:08.625Z,1012.79
2019-04-27T14:28:08.791Z,1012.95
2019-04-27T14:32:09.416Z,1012.87
2019-04-27T14:37:09.001Z,1012.86
2019-04-27T14:42:09.086Z,1012.9
2019-04-27T14:47:08.778Z,1012.86
2019-04-27T14:52:06.960Z,1012.75
2019-04-27T14:57:08.988Z,1012.78
2019-04-27T15:02:08.492Z,1012.74
2019-04-27T15:07:06.911Z,1012.68
2019-04-27T15:11:19.145Z,1012.65
2019-04-27T15:16:08.947Z,1012.67
2019-04-27T15:21:07.250Z,1012.69
2019-04-27T15:26:07.520Z,1012.66
2019-04-27T15:31:07.283Z,1012.64
2019-04-27T15:36:14.430Z,1012.46
2019-04-27T15:41:08.580Z,1012.43
2019-04-27T15:45:08.656Z,1012.35
2019-04-27T15:50:07.947Z,1012.36
2019-04-27T15:55:08.361Z,1012.4
2019-04-27T16:05:08.603Z,1012.26
2019-04-27T16:10:09.352Z,1012.45
2019-04-27T16:15:08.869Z,1012.37
2019-04-27T16:20:07.580Z,1012.25
2019-04-27T16:24:12.491Z,1012.3
2019-04-27T16:29:08.610Z,1012.38
2019-04-27T16:34:08.710Z,1012.36
2019-04-27T16:39:10.465Z,1012.37
2019-04-27T16:44:10.585Z,1012.4
2019-04-27T16:49:15.437Z,1012.66
2019-04-27T16:53:08.674Z,1012.79
2019-04-27T16:58:17.805Z,1012.88
2019-04-27T17:03:09.477Z,1012.86
2019-04-27T17:08:06.521Z,1012.79
2019-04-27T17:13:14.351Z,1012.99
2019-04-27T17:18:08.844Z,1012.98
2019-04-27T17:22:10.330Z,1013.1
2019-04-27T17:27:15.942Z,1013.14
2019-04-27T17:32:06.551Z,1013.08
2019-04-27T17:37:08.548Z,1013.19
2019-04-27T17:42:08.947Z,1013.24
2019-04-27T17:47:10.811Z,1013.15
2019-04-27T17:52:08.547Z,1013.3
2019-04-27T17:56:08.920Z,1013.33
2019-04-27T18:01:08.766Z,1013.36
2019-04-27T18:06:08.971Z,1013.41
2019-04-27T18:11:09.133Z,1013.49
2019-04-27T18:16:06.795Z,1013.54
2019-04-27T18:21:07.512Z,1013.62
2019-04-27T18:25:10.252Z,1013.61
2019-04-27T18:30:10.473Z,1013.63
2019-04-27T18:35:07.937Z,1013.71
2019-04-27T18:40:08.891Z,1013.76
2019-04-27T18:45:09.028Z,1013.71
2019-04-27T18:50:14.591Z,1013.77
2019-04-27T18:55:06.991Z,1013.88
2019-04-27T19:00:08.448Z,1014.03
2019-04-27T19:04:09.355Z,1013.96
2019-04-27T19:09:08.694Z,1014.09
2019-04-27T19:14:09.067Z,1014.15
2019-04-27T19:19:08.968Z,1014.18
2019-04-27T19:24:09.181Z,1014.1
2019-04-27T19:29:08.369Z,1014.08
2019-04-27T19:34:06.845Z,1014.21
2019-04-27T19:38:08.007Z,1014.22
2019-04-27T19:43:06.957Z,1014.3
2019-04-27T19:48:08.774Z,1014.23
2019-04-27T19:53:06.802Z,1014.18
2019-04-27T19:58:08.810Z,1014.1
2019-04-27T20:03:11.285Z,1014.15
2019-04-27T20:08:07.111Z,1014.25
2019-04-27T20:12:10.549Z,1014.12
2019-04-27T20:17:06.630Z,1014.22
2019-04-27T20:22:07.198Z,1014.22
2019-04-27T20:27:07.166Z,1014.3
2019-04-27T20:32:06.427Z,1014.3
2019-04-27T20:37:06.602Z,1014.34
2019-04-27T20:42:06.408Z,1014.36
2019-04-27T20:47:06.799Z,1014.45
2019-04-27T20:52:06.691Z,1014.4
2019-04-27T20:56:07.177Z,1014.45
2019-04-27T21:01:06.862Z,1014.55
2019-04-27T21:06:07.326Z,1014.64
2019-04-27T21:11:07.539Z,1014.66
2019-04-27T21:16:06.563Z,1014.66
2019-04-27T21:21:07.126Z,1014.67
2019-04-27T21:26:06.983Z,1014.73
2019-04-27T21:30:08.181Z,1014.7
2019-04-27T21:35:07.395Z,1014.73
2019-04-27T21:40:07.236Z,1014.76
2019-04-27T21:45:08.981Z,1014.93
2019-04-27T21:50:07.323Z,1014.9
2019-04-27T21:55:06.269Z,1014.91
2019-04-27T22:00:08.219Z,1014.91
2019-04-27T22:04:06.358Z,1014.98
2019-04-27T22:09:07.206Z,1015.06
2019-04-27T22:14:06.361Z,1015.08
2019-04-27T22:19:07.354Z,1015.19
2019-04-27T22:24:05.995Z,1015.29
2019-04-27T22:29:06.915Z,1015.29
2019-04-27T22:34:06.762Z,1015.37
2019-04-27T22:38:06.385Z,1015.45
2019-04-27T22:43:07.409Z,1015.49
2019-04-27T22:48:07.536Z,1015.66
2019-04-27T22:53:08.400Z,1015.63
2019-04-27T22:58:07.452Z,1015.61
2019-04-27T23:03:06.454Z,1015.53
2019-04-27T23:08:07.428Z,1015.61
2019-04-27T23:13:06.469Z,1015.62
2019-04-27T23:17:06.820Z,1015.59
2019-04-27T23:22:06.878Z,1015.65
2019-04-27T23:27:06.494Z,1015.68
2019-04-27T23:32:06.558Z,1015.59
2019-04-27T23:37:07.395Z,1015.69
2019-04-27T23:42:06.854Z,1015.67
2019-04-27T23:47:06.605Z,1015.7
2019-04-27T23:51:07.045Z,1015.7
2019-04-27T23:56:06.631Z,1015.69
